sensor_id;sensor_type;location;lat;lon;timestamp;temperature;humidity
39427;DHT22;25938;48.470;1.486;2022-09-17T00:00:37;21.00;51.00
39427;DHT22;25938;48.470;1.486;2022-09-17T00:03:03;21.00;51.00
39427;DHT22;25938;48.470;1.486;2022-09-17T00:05:29;21.00;51.00
39427;DHT22;25938;48.470;1.486;2022-09-17T00:07:55;21.00;51.00
39427;DHT22;25938;48.470;1.486;2022-09-17T00:10:21;21.00;51.10
39427;DHT22;25938;48.470;1.486;2022-09-17T00:12:48;21.00;51.10
39427;DHT22;25938;48.470;1.486;2022-09-17T00:15:14;21.00;51.00
39427;DHT22;25938;48.470;1.486;2022-09-17T00:17:40;20.90;51.00
39427;DHT22;25938;48.470;1.486;2022-09-17T00:20:07;20.90;51.00
39427;DHT22;25938;48.470;1.486;2022-09-17T00:22:37;20.90;51.00
39427;DHT22;25938;48.470;1.486;2022-09-17T00:25:04;20.90;51.10
39427;DHT22;25938;48.470;1.486;2022-09-17T00:27:30;20.90;51.10
39427;DHT22;25938;48.470;1.486;2022-09-17T00:29:56;20.90;51.10
39427;DHT22;25938;48.470;1.486;2022-09-17T00:32:21;20.90;51.20
39427;DHT22;25938;48.470;1.486;2022-09-17T00:34:48;20.90;51.30
39427;DHT22;25938;48.470;1.486;2022-09-17T00:37:17;20.90;51.20
39427;DHT22;25938;48.470;1.486;2022-09-17T00:39:42;20.90;51.20
39427;DHT22;25938;48.470;1.486;2022-09-17T00:42:10;20.90;51.20
39427;DHT22;25938;48.470;1.486;2022-09-17T00:44:44;20.80;51.10
39427;DHT22;25938;48.470;1.486;2022-09-17T00:52:56;20.80;51.10
39427;DHT22;25938;48.470;1.486;2022-09-17T00:55:38;20.80;51.10
39427;DHT22;25938;48.470;1.486;2022-09-17T00:58:09;20.80;51.10
39427;DHT22;25938;48.470;1.486;2022-09-17T01:00:35;20.80;51.20
39427;DHT22;25938;48.470;1.486;2022-09-17T01:03:01;20.80;51.20
39427;DHT22;25938;48.470;1.486;2022-09-17T01:11:29;20.80;50.70
39427;DHT22;25938;48.470;1.486;2022-09-17T01:13:58;20.80;51.00
39427;DHT22;25938;48.470;1.486;2022-09-17T01:33:34;20.70;50.90
39427;DHT22;25938;48.470;1.486;2022-09-17T01:38:52;20.70;50.90
39427;DHT22;25938;48.470;1.486;2022-09-17T01:41:26;20.70;51.00
39427;DHT22;25938;48.470;1.486;2022-09-17T01:44:09;20.70;50.90
39427;DHT22;25938;48.470;1.486;2022-09-17T01:46:50;20.60;50.80
39427;DHT22;25938;48.470;1.486;2022-09-17T01:49:18;20.60;50.60
39427;DHT22;25938;48.470;1.486;2022-09-17T01:51:47;20.60;51.00
39427;DHT22;25938;48.470;1.486;2022-09-17T01:54:27;20.60;50.90
39427;DHT22;25938;48.470;1.486;2022-09-17T01:57:06;20.60;50.80
39427;DHT22;25938;48.470;1.486;2022-09-17T01:59:35;20.60;50.90
39427;DHT22;25938;48.470;1.486;2022-09-17T02:02:09;20.60;51.20
39427;DHT22;25938;48.470;1.486;2022-09-17T02:04:39;20.60;50.90
39427;DHT22;25938;48.470;1.486;2022-09-17T02:07:16;20.60;51.00
39427;DHT22;25938;48.470;1.486;2022-09-17T02:10:09;20.60;51.00
39427;DHT22;25938;48.470;1.486;2022-09-17T02:12:38;20.60;51.00
39427;DHT22;25938;48.470;1.486;2022-09-17T02:15:09;20.60;51.10
39427;DHT22;25938;48.470;1.486;2022-09-17T02:17:48;20.60;51.00
39427;DHT22;25938;48.470;1.486;2022-09-17T02:20:16;20.50;50.80
39427;DHT22;25938;48.470;1.486;2022-09-17T02:22:47;20.60;51.20
39427;DHT22;25938;48.470;1.486;2022-09-17T02:25:33;20.60;51.00
39427;DHT22;25938;48.470;1.486;2022-09-17T02:30:34;20.50;51.00
39427;DHT22;25938;48.470;1.486;2022-09-17T02:33:06;20.60;51.10
39427;DHT22;25938;48.470;1.486;2022-09-17T02:35:34;20.50;50.90
39427;DHT22;25938;48.470;1.486;2022-09-17T02:38:00;20.50;51.00
39427;DHT22;25938;48.470;1.486;2022-09-17T02:40:28;20.50;51.00
39427;DHT22;25938;48.470;1.486;2022-09-17T02:43:27;20.50;50.90
39427;DHT22;25938;48.470;1.486;2022-09-17T02:46:11;20.50;50.70
39427;DHT22;25938;48.470;1.486;2022-09-17T02:49:05;20.50;51.20
39427;DHT22;25938;48.470;1.486;2022-09-17T02:57:41;20.50;51.00
39427;DHT22;25938;48.470;1.486;2022-09-17T03:00:18;20.50;51.10
39427;DHT22;25938;48.470;1.486;2022-09-17T03:05:12;20.40;51.10
39427;DHT22;25938;48.470;1.486;2022-09-17T03:07:37;20.40;51.10
39427;DHT22;25938;48.470;1.486;2022-09-17T03:10:04;20.40;51.10
39427;DHT22;25938;48.470;1.486;2022-09-17T03:12:30;20.40;51.10
39427;DHT22;25938;48.470;1.486;2022-09-17T03:14:56;20.40;51.10
39427;DHT22;25938;48.470;1.486;2022-09-17T03:17:21;20.40;51.20
39427;DHT22;25938;48.470;1.486;2022-09-17T03:19:47;20.40;51.20
39427;DHT22;25938;48.470;1.486;2022-09-17T03:22:13;20.40;51.20
39427;DHT22;25938;48.470;1.486;2022-09-17T03:24:38;20.40;51.20
39427;DHT22;25938;48.470;1.486;2022-09-17T03:27:04;20.40;51.10
39427;DHT22;25938;48.470;1.486;2022-09-17T03:29:30;20.40;51.10
39427;DHT22;25938;48.470;1.486;2022-09-17T03:31:55;20.30;51.00
39427;DHT22;25938;48.470;1.486;2022-09-17T03:34:21;20.30;50.90
39427;DHT22;25938;48.470;1.486;2022-09-17T03:36:47;20.40;51.00
39427;DHT22;25938;48.470;1.486;2022-09-17T03:39:13;20.30;50.90
39427;DHT22;25938;48.470;1.486;2022-09-17T03:41:39;20.30;50.90
39427;DHT22;25938;48.470;1.486;2022-09-17T03:44:04;20.30;50.90
39427;DHT22;25938;48.470;1.486;2022-09-17T03:46:31;20.30;50.90
39427;DHT22;25938;48.470;1.486;2022-09-17T03:48:56;20.30;50.90
39427;DHT22;25938;48.470;1.486;2022-09-17T03:51:22;20.30;50.90
39427;DHT22;25938;48.470;1.486;2022-09-17T03:53:47;20.30;51.00
39427;DHT22;25938;48.470;1.486;2022-09-17T03:56:13;20.30;50.90
39427;DHT22;25938;48.470;1.486;2022-09-17T03:58:39;20.30;50.90
39427;DHT22;25938;48.470;1.486;2022-09-17T04:01:05;20.20;50.80
39427;DHT22;25938;48.470;1.486;2022-09-17T04:03:31;20.20;50.90
39427;DHT22;25938;48.470;1.486;2022-09-17T04:05:56;20.20;50.80
39427;DHT22;25938;48.470;1.486;2022-09-17T04:08:22;20.20;50.80
39427;DHT22;25938;48.470;1.486;2022-09-17T04:10:48;20.20;50.90
39427;DHT22;25938;48.470;1.486;2022-09-17T04:13:16;20.20;50.90
39427;DHT22;25938;48.470;1.486;2022-09-17T04:15:43;20.20;50.80
39427;DHT22;25938;48.470;1.486;2022-09-17T04:18:09;20.20;50.80
39427;DHT22;25938;48.470;1.486;2022-09-17T04:20:35;20.20;50.90
39427;DHT22;25938;48.470;1.486;2022-09-17T04:23:01;20.20;50.90
39427;DHT22;25938;48.470;1.486;2022-09-17T04:25:26;20.20;50.90
39427;DHT22;25938;48.470;1.486;2022-09-17T04:27:52;20.20;50.90
39427;DHT22;25938;48.470;1.486;2022-09-17T04:30:17;20.20;50.90
39427;DHT22;25938;48.470;1.486;2022-09-17T04:32:44;20.20;51.00
39427;DHT22;25938;48.470;1.486;2022-09-17T04:35:10;20.20;51.00
39427;DHT22;25938;48.470;1.486;2022-09-17T04:37:37;20.10;51.00
39427;DHT22;25938;48.470;1.486;2022-09-17T04:40:03;20.10;50.90
39427;DHT22;25938;48.470;1.486;2022-09-17T04:42:29;20.10;50.90
39427;DHT22;25938;48.470;1.486;2022-09-17T04:44:54;20.10;51.00
39427;DHT22;25938;48.470;1.486;2022-09-17T04:47:20;20.10;51.00
39427;DHT22;25938;48.470;1.486;2022-09-17T04:49:45;20.10;51.00
39427;DHT22;25938;48.470;1.486;2022-09-17T04:52:11;20.10;51.10
39427;DHT22;25938;48.470;1.486;2022-09-17T04:54:37;20.10;51.00
39427;DHT22;25938;48.470;1.486;2022-09-17T04:57:02;20.10;51.00
39427;DHT22;25938;48.470;1.486;2022-09-17T04:59:28;20.10;51.00
39427;DHT22;25938;48.470;1.486;2022-09-17T05:01:54;20.10;51.00
39427;DHT22;25938;48.470;1.486;2022-09-17T05:04:20;20.10;51.00
39427;DHT22;25938;48.470;1.486;2022-09-17T05:06:45;20.10;50.90
39427;DHT22;25938;48.470;1.486;2022-09-17T05:09:11;20.10;51.00
39427;DHT22;25938;48.470;1.486;2022-09-17T05:11:37;20.10;50.90
39427;DHT22;25938;48.470;1.486;2022-09-17T05:14:02;20.10;50.90
39427;DHT22;25938;48.470;1.486;2022-09-17T05:16:28;20.10;50.90
39427;DHT22;25938;48.470;1.486;2022-09-17T05:18:53;20.00;50.80
39427;DHT22;25938;48.470;1.486;2022-09-17T05:21:20;20.10;50.90
39427;DHT22;25938;48.470;1.486;2022-09-17T05:23:45;20.00;50.80
39427;DHT22;25938;48.470;1.486;2022-09-17T05:26:12;20.00;50.80
39427;DHT22;25938;48.470;1.486;2022-09-17T05:28:38;20.10;50.90
39427;DHT22;25938;48.470;1.486;2022-09-17T05:31:04;20.10;50.90
39427;DHT22;25938;48.470;1.486;2022-09-17T05:33:29;20.00;50.90
39427;DHT22;25938;48.470;1.486;2022-09-17T05:35:55;20.00;50.90
39427;DHT22;25938;48.470;1.486;2022-09-17T05:38:20;20.00;51.00
39427;DHT22;25938;48.470;1.486;2022-09-17T05:40:46;20.00;51.00
39427;DHT22;25938;48.470;1.486;2022-09-17T05:43:13;20.00;51.00
39427;DHT22;25938;48.470;1.486;2022-09-17T05:45:39;20.00;51.00
39427;DHT22;25938;48.470;1.486;2022-09-17T05:48:08;20.00;51.60
39427;DHT22;25938;48.470;1.486;2022-09-17T05:50:34;20.00;50.90
39427;DHT22;25938;48.470;1.486;2022-09-17T05:53:11;20.00;51.00
39427;DHT22;25938;48.470;1.486;2022-09-17T05:55:37;19.90;50.50
39427;DHT22;25938;48.470;1.486;2022-09-17T05:58:29;20.00;51.00
39427;DHT22;25938;48.470;1.486;2022-09-17T06:01:00;19.90;50.50
39427;DHT22;25938;48.470;1.486;2022-09-17T06:03:25;20.00;51.00
39427;DHT22;25938;48.470;1.486;2022-09-17T06:05:53;20.00;51.00
39427;DHT22;25938;48.470;1.486;2022-09-17T06:08:19;19.90;50.90
39427;DHT22;25938;48.470;1.486;2022-09-17T06:10:45;19.90;50.90
39427;DHT22;25938;48.470;1.486;2022-09-17T06:13:11;19.90;50.90
39427;DHT22;25938;48.470;1.486;2022-09-17T06:15:36;19.90;50.90
39427;DHT22;25938;48.470;1.486;2022-09-17T06:18:02;19.90;50.90
39427;DHT22;25938;48.470;1.486;2022-09-17T06:20:27;19.90;50.80
39427;DHT22;25938;48.470;1.486;2022-09-17T06:22:57;19.90;50.80
39427;DHT22;25938;48.470;1.486;2022-09-17T06:25:22;19.90;50.70
39427;DHT22;25938;48.470;1.486;2022-09-17T06:27:48;19.90;50.70
39427;DHT22;25938;48.470;1.486;2022-09-17T06:30:14;19.90;50.70
39427;DHT22;25938;48.470;1.486;2022-09-17T06:32:39;19.90;50.70
39427;DHT22;25938;48.470;1.486;2022-09-17T06:35:05;19.90;50.70
39427;DHT22;25938;48.470;1.486;2022-09-17T06:37:32;19.90;50.70
39427;DHT22;25938;48.470;1.486;2022-09-17T06:39:58;19.90;50.70
39427;DHT22;25938;48.470;1.486;2022-09-17T06:42:25;19.90;50.70
39427;DHT22;25938;48.470;1.486;2022-09-17T06:44:50;19.90;50.70
39427;DHT22;25938;48.470;1.486;2022-09-17T06:47:16;19.90;50.70
39427;DHT22;25938;48.470;1.486;2022-09-17T06:49:42;19.90;50.80
39427;DHT22;25938;48.470;1.486;2022-09-17T06:52:08;19.90;50.80
39427;DHT22;25938;48.470;1.486;2022-09-17T06:54:34;19.90;50.80
39427;DHT22;25938;48.470;1.486;2022-09-17T06:57:00;19.90;50.90
39427;DHT22;25938;48.470;1.486;2022-09-17T06:59:25;19.90;50.90
39427;DHT22;25938;48.470;1.486;2022-09-17T07:01:52;19.90;51.00
39427;DHT22;25938;48.470;1.486;2022-09-17T07:04:18;19.90;51.00
39427;DHT22;25938;48.470;1.486;2022-09-17T07:06:44;19.90;51.10
39427;DHT22;25938;48.470;1.486;2022-09-17T07:09:10;19.80;51.10
39427;DHT22;25938;48.470;1.486;2022-09-17T07:11:37;19.90;51.20
39427;DHT22;25938;48.470;1.486;2022-09-17T07:14:03;19.80;51.20
39427;DHT22;25938;48.470;1.486;2022-09-17T07:16:29;19.90;51.30
39427;DHT22;25938;48.470;1.486;2022-09-17T07:18:59;19.90;51.40
39427;DHT22;25938;48.470;1.486;2022-09-17T07:21:25;19.90;51.30
39427;DHT22;25938;48.470;1.486;2022-09-17T07:23:50;19.90;51.20
39427;DHT22;25938;48.470;1.486;2022-09-17T07:26:16;19.80;51.20
39427;DHT22;25938;48.470;1.486;2022-09-17T07:28:42;19.90;51.20
39427;DHT22;25938;48.470;1.486;2022-09-17T07:31:08;19.90;51.20
39427;DHT22;25938;48.470;1.486;2022-09-17T07:33:35;19.90;51.20
39427;DHT22;25938;48.470;1.486;2022-09-17T07:36:04;19.90;51.30
39427;DHT22;25938;48.470;1.486;2022-09-17T07:38:30;19.90;51.20
39427;DHT22;25938;48.470;1.486;2022-09-17T07:40:57;19.90;51.10
39427;DHT22;25938;48.470;1.486;2022-09-17T07:43:25;19.90;51.10
39427;DHT22;25938;48.470;1.486;2022-09-17T07:45:51;19.90;51.00
39427;DHT22;25938;48.470;1.486;2022-09-17T07:48:18;19.90;51.20
39427;DHT22;25938;48.470;1.486;2022-09-17T07:50:43;19.90;51.30
39427;DHT22;25938;48.470;1.486;2022-09-17T07:53:09;19.90;51.00
39427;DHT22;25938;48.470;1.486;2022-09-17T07:55:35;19.90;51.00
39427;DHT22;25938;48.470;1.486;2022-09-17T07:58:00;19.90;51.00
39427;DHT22;25938;48.470;1.486;2022-09-17T08:00:26;19.90;50.90
39427;DHT22;25938;48.470;1.486;2022-09-17T08:02:55;19.90;50.70
39427;DHT22;25938;48.470;1.486;2022-09-17T08:05:22;19.90;50.70
39427;DHT22;25938;48.470;1.486;2022-09-17T08:07:53;19.90;50.80
39427;DHT22;25938;48.470;1.486;2022-09-17T08:10:21;19.90;50.60
39427;DHT22;25938;48.470;1.486;2022-09-17T08:12:54;19.90;50.60
39427;DHT22;25938;48.470;1.486;2022-09-17T08:15:20;19.90;50.20
39427;DHT22;25938;48.470;1.486;2022-09-17T08:17:46;19.90;50.70
39427;DHT22;25938;48.470;1.486;2022-09-17T08:20:13;20.00;50.60
39427;DHT22;25938;48.470;1.486;2022-09-17T08:22:39;19.90;50.40
39427;DHT22;25938;48.470;1.486;2022-09-17T08:25:08;19.90;50.50
39427;DHT22;25938;48.470;1.486;2022-09-17T08:27:35;19.90;50.80
39427;DHT22;25938;48.470;1.486;2022-09-17T08:30:04;19.90;51.30
39427;DHT22;25938;48.470;1.486;2022-09-17T08:32:29;20.00;51.50
39427;DHT22;25938;48.470;1.486;2022-09-17T08:34:55;20.00;51.50
39427;DHT22;25938;48.470;1.486;2022-09-17T08:37:21;20.00;51.70
39427;DHT22;25938;48.470;1.486;2022-09-17T08:39:47;20.00;51.70
39427;DHT22;25938;48.470;1.486;2022-09-17T08:42:23;20.00;51.60
39427;DHT22;25938;48.470;1.486;2022-09-17T08:44:52;20.00;51.80
39427;DHT22;25938;48.470;1.486;2022-09-17T08:47:33;20.00;51.30
39427;DHT22;25938;48.470;1.486;2022-09-17T08:50:12;20.00;51.00
39427;DHT22;25938;48.470;1.486;2022-09-17T08:53:03;20.00;51.50
39427;DHT22;25938;48.470;1.486;2022-09-17T08:55:34;20.00;50.80
39427;DHT22;25938;48.470;1.486;2022-09-17T09:06:49;20.00;51.30
39427;DHT22;25938;48.470;1.486;2022-09-17T09:09:21;20.00;51.10
39427;DHT22;25938;48.470;1.486;2022-09-17T09:11:54;20.00;50.80
39427;DHT22;25938;48.470;1.486;2022-09-17T09:14:27;20.00;50.60
39427;DHT22;25938;48.470;1.486;2022-09-17T09:16:54;20.00;50.10
39427;DHT22;25938;48.470;1.486;2022-09-17T09:19:22;20.00;50.90
39427;DHT22;25938;48.470;1.486;2022-09-17T09:25:02;20.00;51.30
39427;DHT22;25938;48.470;1.486;2022-09-17T09:27:40;20.00;51.40
39427;DHT22;25938;48.470;1.486;2022-09-17T09:30:09;19.90;50.20
39427;DHT22;25938;48.470;1.486;2022-09-17T09:35:25;20.00;50.90
39427;DHT22;25938;48.470;1.486;2022-09-17T09:38:17;20.00;50.90
39427;DHT22;25938;48.470;1.486;2022-09-17T09:41:04;19.90;50.40
39427;DHT22;25938;48.470;1.486;2022-09-17T09:48:57;20.00;50.80
39427;DHT22;25938;48.470;1.486;2022-09-17T09:57:21;20.00;51.10
39427;DHT22;25938;48.470;1.486;2022-09-17T09:59:48;20.00;51.60
39427;DHT22;25938;48.470;1.486;2022-09-17T10:02:14;20.00;51.10
39427;DHT22;25938;48.470;1.486;2022-09-17T10:04:39;20.00;51.30
39427;DHT22;25938;48.470;1.486;2022-09-17T10:07:07;20.00;51.20
39427;DHT22;25938;48.470;1.486;2022-09-17T10:09:38;20.00;51.70
39427;DHT22;25938;48.470;1.486;2022-09-17T10:14:37;20.00;51.10
39427;DHT22;25938;48.470;1.486;2022-09-17T10:19:44;20.00;50.30
39427;DHT22;25938;48.470;1.486;2022-09-17T10:22:33;20.00;51.00
39427;DHT22;25938;48.470;1.486;2022-09-17T10:25:00;20.00;51.30
39427;DHT22;25938;48.470;1.486;2022-09-17T10:27:27;20.00;51.50
39427;DHT22;25938;48.470;1.486;2022-09-17T10:32:34;20.00;50.00
39427;DHT22;25938;48.470;1.486;2022-09-17T10:35:24;20.00;50.60
39427;DHT22;25938;48.470;1.486;2022-09-17T10:37:52;20.00;51.50
39427;DHT22;25938;48.470;1.486;2022-09-17T10:43:14;20.00;51.00
39427;DHT22;25938;48.470;1.486;2022-09-17T10:45:38;20.00;50.70
39427;DHT22;25938;48.470;1.486;2022-09-17T10:48:16;20.00;50.90
39427;DHT22;25938;48.470;1.486;2022-09-17T10:50:51;20.00;50.80
39427;DHT22;25938;48.470;1.486;2022-09-17T10:53:19;20.00;50.50
39427;DHT22;25938;48.470;1.486;2022-09-17T10:58:32;20.00;51.50
39427;DHT22;25938;48.470;1.486;2022-09-17T11:01:28;20.00;50.70
39427;DHT22;25938;48.470;1.486;2022-09-17T11:04:09;20.00;51.30
39427;DHT22;25938;48.470;1.486;2022-09-17T11:14:53;20.00;50.20
39427;DHT22;25938;48.470;1.486;2022-09-17T11:28:08;20.00;50.60
39427;DHT22;25938;48.470;1.486;2022-09-17T11:33:46;20.00;50.00
39427;DHT22;25938;48.470;1.486;2022-09-17T11:36:27;20.00;50.60
39427;DHT22;25938;48.470;1.486;2022-09-17T11:38:58;20.00;50.90
39427;DHT22;25938;48.470;1.486;2022-09-17T11:41:33;20.10;50.70
39427;DHT22;25938;48.470;1.486;2022-09-17T11:44:23;20.00;50.20
39427;DHT22;25938;48.470;1.486;2022-09-17T11:49:45;20.00;49.80
39427;DHT22;25938;48.470;1.486;2022-09-17T11:57:43;20.10;50.80
39427;DHT22;25938;48.470;1.486;2022-09-17T12:00:19;20.00;50.70
39427;DHT22;25938;48.470;1.486;2022-09-17T12:05:18;20.00;51.70
39427;DHT22;25938;48.470;1.486;2022-09-17T12:10:43;20.00;50.50
39427;DHT22;25938;48.470;1.486;2022-09-17T12:16:20;20.00;50.00
39427;DHT22;25938;48.470;1.486;2022-09-17T12:21:51;20.10;50.20
39427;DHT22;25938;48.470;1.486;2022-09-17T12:24:26;20.10;49.80
39427;DHT22;25938;48.470;1.486;2022-09-17T12:30:13;20.00;48.90
39427;DHT22;25938;48.470;1.486;2022-09-17T12:32:53;20.10;49.10
39427;DHT22;25938;48.470;1.486;2022-09-17T12:52:06;20.10;49.30
39427;DHT22;25938;48.470;1.486;2022-09-17T12:59:35;20.10;50.00
39427;DHT22;25938;48.470;1.486;2022-09-17T13:08:02;20.10;50.00
39427;DHT22;25938;48.470;1.486;2022-09-17T13:22:04;20.10;50.20
39427;DHT22;25938;48.470;1.486;2022-09-17T13:24:32;20.10;50.20
39427;DHT22;25938;48.470;1.486;2022-09-17T13:27:00;20.10;50.50
39427;DHT22;25938;48.470;1.486;2022-09-17T13:32:47;20.20;49.70
39427;DHT22;25938;48.470;1.486;2022-09-17T13:38:00;20.20;51.30
39427;DHT22;25938;48.470;1.486;2022-09-17T13:40:31;20.10;50.10
39427;DHT22;25938;48.470;1.486;2022-09-17T13:48:21;20.10;50.10
39427;DHT22;25938;48.470;1.486;2022-09-17T13:50:48;20.20;50.70
39427;DHT22;25938;48.470;1.486;2022-09-17T13:55:46;20.20;51.00
39427;DHT22;25938;48.470;1.486;2022-09-17T14:35:55;20.20;51.70
39427;DHT22;25938;48.470;1.486;2022-09-17T14:38:40;20.20;51.20
39427;DHT22;25938;48.470;1.486;2022-09-17T14:46:37;20.30;49.50
39427;DHT22;25938;48.470;1.486;2022-09-17T14:49:22;20.20;49.00
39427;DHT22;25938;48.470;1.486;2022-09-17T14:51:50;20.20;49.90
39427;DHT22;25938;48.470;1.486;2022-09-17T14:56:51;20.30;49.40
39427;DHT22;25938;48.470;1.486;2022-09-17T14:59:29;20.20;48.80
39427;DHT22;25938;48.470;1.486;2022-09-17T15:01:58;20.30;48.70
39427;DHT22;25938;48.470;1.486;2022-09-17T15:04:26;20.30;49.50
39427;DHT22;25938;48.470;1.486;2022-09-17T15:06:52;20.30;49.50
39427;DHT22;25938;48.470;1.486;2022-09-17T15:09:25;20.30;49.40
39427;DHT22;25938;48.470;1.486;2022-09-17T15:11:53;20.30;48.70
39427;DHT22;25938;48.470;1.486;2022-09-17T15:14:24;20.30;49.00
39427;DHT22;25938;48.470;1.486;2022-09-17T15:16:54;20.30;49.20
39427;DHT22;25938;48.470;1.486;2022-09-17T15:19:40;20.30;49.60
39427;DHT22;25938;48.470;1.486;2022-09-17T15:22:15;20.30;49.30
39427;DHT22;25938;48.470;1.486;2022-09-17T15:24:48;20.30;49.30
39427;DHT22;25938;48.470;1.486;2022-09-17T15:30:12;20.40;50.10
39427;DHT22;25938;48.470;1.486;2022-09-17T15:32:41;20.30;49.50
39427;DHT22;25938;48.470;1.486;2022-09-17T15:37:51;20.40;48.90
39427;DHT22;25938;48.470;1.486;2022-09-17T15:40:38;20.40;48.30
39427;DHT22;25938;48.470;1.486;2022-09-17T15:45:39;20.40;49.10
39427;DHT22;25938;48.470;1.486;2022-09-17T15:50:54;20.40;48.50
39427;DHT22;25938;48.470;1.486;2022-09-17T15:53:22;20.40;49.20
39427;DHT22;25938;48.470;1.486;2022-09-17T16:09:02;20.40;47.70
39427;DHT22;25938;48.470;1.486;2022-09-17T16:11:29;20.40;48.60
39427;DHT22;25938;48.470;1.486;2022-09-17T16:13:57;20.40;49.10
39427;DHT22;25938;48.470;1.486;2022-09-17T16:16:27;20.40;49.00
39427;DHT22;25938;48.470;1.486;2022-09-17T16:18:55;20.40;48.20
39427;DHT22;25938;48.470;1.486;2022-09-17T16:21:21;20.40;48.20
39427;DHT22;25938;48.470;1.486;2022-09-17T16:23:46;20.40;48.40
39427;DHT22;25938;48.470;1.486;2022-09-17T16:26:30;20.40;48.10
39427;DHT22;25938;48.470;1.486;2022-09-17T16:29:04;20.40;48.70
39427;DHT22;25938;48.470;1.486;2022-09-17T16:31:32;20.50;48.30
39427;DHT22;25938;48.470;1.486;2022-09-17T16:33:58;20.40;48.80
39427;DHT22;25938;48.470;1.486;2022-09-17T16:36:24;20.50;48.70
39427;DHT22;25938;48.470;1.486;2022-09-17T16:38:50;20.50;48.10
39427;DHT22;25938;48.470;1.486;2022-09-17T16:41:16;20.50;48.70
39427;DHT22;25938;48.470;1.486;2022-09-17T16:43:41;20.50;48.90
39427;DHT22;25938;48.470;1.486;2022-09-17T16:46:09;20.50;48.70
39427;DHT22;25938;48.470;1.486;2022-09-17T16:48:35;20.50;49.30
39427;DHT22;25938;48.470;1.486;2022-09-17T16:51:08;20.50;48.90
39427;DHT22;25938;48.470;1.486;2022-09-17T16:53:34;20.50;47.80
39427;DHT22;25938;48.470;1.486;2022-09-17T16:56:00;20.50;47.70
39427;DHT22;25938;48.470;1.486;2022-09-17T16:58:26;20.50;47.50
39427;DHT22;25938;48.470;1.486;2022-09-17T17:00:51;20.50;48.50
39427;DHT22;25938;48.470;1.486;2022-09-17T17:03:17;20.50;48.60
39427;DHT22;25938;48.470;1.486;2022-09-17T17:05:43;20.50;48.00
39427;DHT22;25938;48.470;1.486;2022-09-17T17:08:09;20.50;47.60
39427;DHT22;25938;48.470;1.486;2022-09-17T17:10:36;20.50;47.50
39427;DHT22;25938;48.470;1.486;2022-09-17T17:13:03;20.50;47.70
39427;DHT22;25938;48.470;1.486;2022-09-17T17:15:28;20.50;47.20
39427;DHT22;25938;48.470;1.486;2022-09-17T17:17:55;20.50;47.10
39427;DHT22;25938;48.470;1.486;2022-09-17T17:20:21;20.50;47.30
39427;DHT22;25938;48.470;1.486;2022-09-17T17:22:47;20.50;47.10
39427;DHT22;25938;48.470;1.486;2022-09-17T17:25:15;20.50;46.90
39427;DHT22;25938;48.470;1.486;2022-09-17T17:27:40;20.50;46.80
39427;DHT22;25938;48.470;1.486;2022-09-17T17:30:08;20.50;46.70
39427;DHT22;25938;48.470;1.486;2022-09-17T17:32:35;20.50;46.60
39427;DHT22;25938;48.470;1.486;2022-09-17T17:35:02;20.50;46.60
39427;DHT22;25938;48.470;1.486;2022-09-17T17:37:27;20.50;46.70
39427;DHT22;25938;48.470;1.486;2022-09-17T17:39:53;20.50;46.70
39427;DHT22;25938;48.470;1.486;2022-09-17T17:42:20;20.50;46.70
39427;DHT22;25938;48.470;1.486;2022-09-17T17:44:46;20.50;46.70
39427;DHT22;25938;48.470;1.486;2022-09-17T17:47:12;20.50;46.80
39427;DHT22;25938;48.470;1.486;2022-09-17T17:49:38;20.50;46.70
39427;DHT22;25938;48.470;1.486;2022-09-17T17:52:04;20.50;46.50
39427;DHT22;25938;48.470;1.486;2022-09-17T17:54:30;20.50;46.40
39427;DHT22;25938;48.470;1.486;2022-09-17T17:56:56;20.50;46.60
39427;DHT22;25938;48.470;1.486;2022-09-17T17:59:21;20.50;46.70
39427;DHT22;25938;48.470;1.486;2022-09-17T18:01:47;20.50;46.80
39427;DHT22;25938;48.470;1.486;2022-09-17T18:04:13;20.50;46.80
39427;DHT22;25938;48.470;1.486;2022-09-17T18:06:39;20.50;46.70
39427;DHT22;25938;48.470;1.486;2022-09-17T18:09:05;20.50;46.70
39427;DHT22;25938;48.470;1.486;2022-09-17T18:11:32;20.50;46.70
39427;DHT22;25938;48.470;1.486;2022-09-17T18:13:58;20.50;46.60
39427;DHT22;25938;48.470;1.486;2022-09-17T18:16:26;20.50;46.60
39427;DHT22;25938;48.470;1.486;2022-09-17T18:18:55;20.50;46.60
39427;DHT22;25938;48.470;1.486;2022-09-17T18:21:22;20.50;46.40
39427;DHT22;25938;48.470;1.486;2022-09-17T18:23:49;20.50;46.50
39427;DHT22;25938;48.470;1.486;2022-09-17T18:26:20;20.50;46.40
39427;DHT22;25938;48.470;1.486;2022-09-17T18:28:46;20.50;46.20
39427;DHT22;25938;48.470;1.486;2022-09-17T18:31:38;20.50;46.50
39427;DHT22;25938;48.470;1.486;2022-09-17T18:34:13;20.50;46.10
39427;DHT22;25938;48.470;1.486;2022-09-17T18:36:40;20.50;46.70
39427;DHT22;25938;48.470;1.486;2022-09-17T18:39:08;20.40;46.70
39427;DHT22;25938;48.470;1.486;2022-09-17T18:41:36;20.40;46.70
39427;DHT22;25938;48.470;1.486;2022-09-17T18:44:03;20.50;46.70
39427;DHT22;25938;48.470;1.486;2022-09-17T18:46:29;20.40;46.80
39427;DHT22;25938;48.470;1.486;2022-09-17T18:48:56;20.40;46.90
39427;DHT22;25938;48.470;1.486;2022-09-17T18:51:23;20.40;46.80
39427;DHT22;25938;48.470;1.486;2022-09-17T18:53:49;20.40;46.80
39427;DHT22;25938;48.470;1.486;2022-09-17T18:56:21;20.40;46.80
39427;DHT22;25938;48.470;1.486;2022-09-17T18:58:48;20.40;46.60
39427;DHT22;25938;48.470;1.486;2022-09-17T19:01:15;20.40;46.80
39427;DHT22;25938;48.470;1.486;2022-09-17T19:03:41;20.40;46.80
39427;DHT22;25938;48.470;1.486;2022-09-17T19:06:08;20.40;46.80
39427;DHT22;25938;48.470;1.486;2022-09-17T19:08:35;20.40;46.70
39427;DHT22;25938;48.470;1.486;2022-09-17T19:11:01;20.40;46.80
39427;DHT22;25938;48.470;1.486;2022-09-17T19:13:32;20.40;46.80
39427;DHT22;25938;48.470;1.486;2022-09-17T19:15:59;20.40;46.60
39427;DHT22;25938;48.470;1.486;2022-09-17T19:18:25;20.40;46.90
39427;DHT22;25938;48.470;1.486;2022-09-17T19:20:51;20.40;46.70
39427;DHT22;25938;48.470;1.486;2022-09-17T19:23:16;20.40;46.70
39427;DHT22;25938;48.470;1.486;2022-09-17T19:25:42;20.40;46.70
39427;DHT22;25938;48.470;1.486;2022-09-17T19:28:07;20.40;46.70
39427;DHT22;25938;48.470;1.486;2022-09-17T19:30:34;20.30;46.70
39427;DHT22;25938;48.470;1.486;2022-09-17T19:33:00;20.30;46.70
39427;DHT22;25938;48.470;1.486;2022-09-17T19:35:26;20.40;46.70
39427;DHT22;25938;48.470;1.486;2022-09-17T19:37:56;20.30;46.70
39427;DHT22;25938;48.470;1.486;2022-09-17T19:40:21;20.40;46.80
39427;DHT22;25938;48.470;1.486;2022-09-17T19:42:51;20.30;46.70
39427;DHT22;25938;48.470;1.486;2022-09-17T19:45:18;20.30;46.60
39427;DHT22;25938;48.470;1.486;2022-09-17T19:47:44;20.30;46.70
39427;DHT22;25938;48.470;1.486;2022-09-17T19:50:09;20.30;46.80